Hermosillo, México

6:37 PM MDT en Octubre 22, 2014 (GMT -0600)
Gen Ignacio Pesqueira Garcia | Change Station
CLOSE
Current Station
Aeropuerto
Location: Hermosillo,
Altura: 627 ft
Estaciones meteorológicas cercanas

Alt 627 ft 29.09 °N, 111.05 °W | Updated 50 minutes ago

Clear
Despejado
95 ° F
Sensación térmica 95 ° F
N
5
Viento Variable Viento desde SSO

Hoy
Alta -- | Baja -- ° F
--% Posibilidad de precipitaciones
Ayer
Alta -- | Baja -- ° F
Precip. -- pul
7:29 AM 6:46 PM
Creciente menguante, 1% visible
Presión 29.78 pul
Visibilidad 10.0 Millas
Nubes Despejado
Punto de rocío 50 ° F
Humedad 22%
Precipitaciones 0.00 pul
Espesor de la nieve No disponible.
UV 1 de una escala de 12
Polen No disponible.
Calidad del aire No disponible.
Flu Activity No disponible.
METAR MMHO 222347Z 21004KT 10SM SKC 35/10 A2982 RMK SLP083 54000 918 HZY

More Conditions Fewer Conditions

Presión 29.78 pul
Visibilidad 10.0 Millas
Nubes Despejado
Punto de rocío 50 ° F
Humedad 22%
Precipitaciones 0.00 pul
Espesor de la nieve No disponible.
UV 1 de una escala de 12
Polen No disponible.
Calidad del aire No disponible.
Flu Activity No disponible.
METAR MMHO 222347Z 21004KT 10SM SKC 35/10 A2982 RMK SLP083 54000 918 HZY

More Conditions Fewer Conditions

10-Day Weather Forecast

Almanac

Astronomía

Oct. 22, 2014 Salida Puesta
Hora real 7:29 AM MDT 6:46 PM MDT
Crepúsculo civil 7:05 AM MDT 7:11 PM MDT
Crepúsculo náutico 6:38 AM MDT 7:38 PM MDT
Crepúsculo astronómico 6:10 AM MDT 8:06 PM MDT
Luna 6:20 AM MDT (10/22) 6:11 PM MDT (10/22)
Horas de luz 12h 05m
Horas de luz
11h 17m
Tomorrow will be 1m 37s shorter.
Creciente menguante, 1% of the Moon is Illuminated
Hoy
Creciente menguante
Oct 23
Nueva
Oct 30
Cuarto creciente
Nov 6
Luna llena
Nov 14
Cuarto menguante

Extremos de hoy

Máximos del país Bajas del país

Community

WunderPhotos

Upload Photos

1,764,095 ¡fotos cargadas!

WunderBlogs® & News

Nearby

Calidad del aire

Not available.

Grosos de nieve

Not available.

Actividad de terremotos

Ciudad Distance Mag. Tiempo y dato
No hay informes recientes de la actividad sísmica.
Magnitud mínima muestra es 2,5.

Temperaturas de aguas costeras

Lugar Temperatura
Sin partes meteorológicos de las estaciones

Estaciones meteorológicas cercanas